createdAt,value
2022-10-02T00:02:33.001Z,99681.10
2022-10-02T00:05:14.570Z,99688.15
2022-10-02T00:07:55.399Z,99685.38
2022-10-02T00:10:48.482Z,99699.09
2022-10-02T00:13:28.961Z,99693.73
2022-10-02T00:15:58.125Z,99699.35
2022-10-02T00:18:34.173Z,99697.08
2022-10-02T00:21:26.206Z,99703.03
2022-10-02T00:23:59.918Z,99706.11
2022-10-02T00:26:36.177Z,99704.79
2022-10-02T00:29:15.905Z,99712.17
2022-10-02T00:32:11.455Z,99713.69
2022-10-02T00:35:23.291Z,99716.34
2022-10-02T00:38:06.931Z,99723.23
2022-10-02T00:41:02.587Z,99726.38
2022-10-02T00:43:57.249Z,99729.96
2022-10-02T00:47:07.800Z,99730.74
2022-10-02T00:50:20.430Z,99727.80
2022-10-02T00:53:25.392Z,99730.61
2022-10-02T00:56:11.701Z,99728.21
2022-10-02T00:59:10.761Z,99738.64
2022-10-02T01:01:57.084Z,99742.60
2022-10-02T01:04:37.811Z,99741.94
2022-10-02T01:07:10.380Z,99744.59
2022-10-02T01:09:40.062Z,99745.67
2022-10-02T01:12:08.602Z,99746.70
2022-10-02T01:14:39.898Z,99750.46
2022-10-02T01:17:24.704Z,99755.24
2022-10-02T01:19:54.407Z,99760.27
2022-10-02T01:22:59.198Z,99766.19
2022-10-02T01:25:27.689Z,99771.55
2022-10-02T01:27:56.571Z,99768.88
2022-10-02T01:30:25.476Z,99768.94
2022-10-02T01:32:57.535Z,99771.91
2022-10-02T01:35:31.948Z,99767.30
2022-10-02T01:38:06.037Z,99773.33
2022-10-02T01:40:37.837Z,99772.80
2022-10-02T01:43:28.637Z,99777.36
2022-10-02T01:46:28.745Z,99784.12
2022-10-02T01:49:30.271Z,99785.86
2022-10-02T01:52:34.519Z,99784.90
2022-10-02T01:56:12.412Z,99795.30
2022-10-02T01:59:10.722Z,99795.19
2022-10-02T02:02:23.006Z,99805.04
2022-10-02T02:05:04.808Z,99806.34
2022-10-02T02:07:43.497Z,99806.09
2022-10-02T02:10:34.147Z,99811.90
2022-10-02T02:13:23.631Z,99815.08
2022-10-02T02:16:03.574Z,99813.95
2022-10-02T02:18:46.568Z,99820.13
2022-10-02T02:21:26.919Z,99826.69
2022-10-02T02:23:57.681Z,99833.76
2022-10-02T02:26:28.874Z,99837.45
2022-10-02T02:29:05.859Z,99839.09
2022-10-02T02:31:42.014Z,99846.65
2022-10-02T02:34:17.187Z,99852.10
2022-10-02T02:36:51.509Z,99860.83
2022-10-02T02:39:31.362Z,99860.20
2022-10-02T02:42:05.270Z,99859.99
2022-10-02T02:44:55.267Z,99865.25
2022-10-02T02:47:40.567Z,99868.71
2022-10-02T02:50:43.847Z,99870.04
2022-10-02T02:53:23.385Z,99872.20
2022-10-02T02:55:58.583Z,99874.55
2022-10-02T02:58:35.050Z,99879.66
2022-10-02T03:01:04.069Z,99886.02
2022-10-02T03:03:33.083Z,99887.16
2022-10-02T03:06:26.514Z,99891.95
2022-10-02T03:08:55.156Z,99883.95
2022-10-02T03:12:09.984Z,99885.55
2022-10-02T03:15:15.609Z,99884.11
2022-10-02T03:17:57.471Z,99887.04
2022-10-02T03:21:02.428Z,99889.01
2022-10-02T03:23:46.198Z,99892.64
2022-10-02T03:26:25.735Z,99894.33
2022-10-02T03:28:59.789Z,99897.39
2022-10-02T03:31:32.904Z,99902.89
2022-10-02T03:34:03.670Z,99905.02
2022-10-02T03:36:33.383Z,99904.83
2022-10-02T03:39:24.120Z,99905.64
2022-10-02T03:41:54.598Z,99906.30
2022-10-02T03:44:23.074Z,99903.72
2022-10-02T03:46:51.479Z,99905.69
2022-10-02T03:49:19.845Z,99901.98
2022-10-02T03:51:48.179Z,99903.98
2022-10-02T03:54:20.038Z,99904.40
2022-10-02T03:56:57.059Z,99911.30
2022-10-02T04:00:13.024Z,99911.89
2022-10-02T04:03:11.399Z,99911.55
2022-10-02T04:05:46.066Z,99915.97
2022-10-02T04:08:28.010Z,99911.98
2022-10-02T04:11:10.242Z,99918.48
2022-10-02T04:13:49.795Z,99923.37
2022-10-02T04:16:35.829Z,99929.02
2022-10-02T04:19:12.032Z,99927.09
2022-10-02T04:22:01.631Z,99924.04
2022-10-02T04:25:02.846Z,99930.52
2022-10-02T04:27:54.312Z,99930.34
2022-10-02T04:30:23.493Z,99935.73
2022-10-02T04:32:52.166Z,99935.43
2022-10-02T04:35:56.994Z,99941.35
2022-10-02T04:39:03.165Z,99946.67
2022-10-02T04:42:06.164Z,99948.64
2022-10-02T04:45:05.179Z,99954.33
2022-10-02T04:48:02.185Z,99958.09
2022-10-02T04:51:03.892Z,99960.92
2022-10-02T04:53:56.585Z,99965.94
2022-10-02T04:56:36.410Z,99970.21
2022-10-02T04:59:31.406Z,99966.79
2022-10-02T05:02:33.111Z,99973.77
2022-10-02T05:05:23.349Z,99970.41
2022-10-02T05:08:17.751Z,99973.02
2022-10-02T05:10:55.243Z,99969.14
2022-10-02T05:13:32.332Z,99972.91
2022-10-02T05:16:44.107Z,99977.86
2022-10-02T05:19:19.749Z,99975.76
2022-10-02T05:22:29.619Z,99978.41
2022-10-02T05:25:17.181Z,99981.17
2022-10-02T05:28:16.222Z,99982.78
2022-10-02T05:31:04.360Z,99984.55
2022-10-02T05:33:47.394Z,99981.86
2022-10-02T05:36:49.397Z,99985.42
2022-10-02T05:39:20.990Z,99984.25
2022-10-02T05:42:01.774Z,99981.47
2022-10-02T05:44:39.331Z,99985.96
2022-10-02T05:47:32.015Z,99990.73
2022-10-02T05:50:15.112Z,99987.15
2022-10-02T05:53:00.873Z,99989.86
2022-10-02T05:55:39.601Z,99986.50
2022-10-02T05:58:33.918Z,99981.58
2022-10-02T06:01:17.281Z,99985.73
2022-10-02T06:04:00.057Z,99988.50
2022-10-02T06:06:49.007Z,99992.25
2022-10-02T06:09:23.829Z,99993.88
2022-10-02T06:12:35.334Z,100000.67
2022-10-02T06:15:22.714Z,99999.42
2022-10-02T06:18:01.776Z,100002.63
2022-10-02T06:20:40.747Z,100002.16
2022-10-02T06:23:16.159Z,100006.27
2022-10-02T06:25:51.289Z,100003.10
2022-10-02T06:28:34.060Z,100005.21
2022-10-02T06:31:04.445Z,100002.95
2022-10-02T06:33:33.661Z,100005.26
2022-10-02T06:36:18.129Z,100008.51
2022-10-02T06:39:18.152Z,100013.43
2022-10-02T06:42:22.289Z,100016.61
2022-10-02T06:45:32.471Z,100020.05
2022-10-02T06:48:31.755Z,100018.84
2022-10-02T06:51:28.021Z,100018.42
2022-10-02T06:54:21.221Z,100022.68
2022-10-02T06:57:11.646Z,100024.86
2022-10-02T07:00:15.942Z,100025.77
2022-10-02T07:03:27.534Z,100025.97
2022-10-02T07:06:22.038Z,100022.15
2022-10-02T07:09:46.214Z,100027.02
2022-10-02T07:12:29.638Z,100027.48
2022-10-02T07:15:47.589Z,100025.97
2022-10-02T07:19:00.792Z,100024.59
2022-10-02T07:21:40.308Z,100020.51
2022-10-02T07:24:35.103Z,100022.27
2022-10-02T07:27:21.647Z,100029.84
2022-10-02T07:29:58.920Z,100029.39
2022-10-02T07:32:59.320Z,100032.63
2022-10-02T07:35:48.406Z,100027.30
2022-10-02T07:39:07.322Z,100035.23
2022-10-02T07:41:56.159Z,100030.35
2022-10-02T07:44:43.713Z,100031.25
2022-10-02T07:48:06.308Z,100029.61
2022-10-02T07:51:33.005Z,100033.41
2022-10-02T07:55:07.450Z,100038.77
2022-10-02T07:58:14.472Z,100037.70
2022-10-02T08:00:59.784Z,100030.59
2022-10-02T08:03:31.977Z,100039.70
2022-10-02T08:06:01.959Z,100035.17
2022-10-02T08:08:44.562Z,100037.60
2022-10-02T08:11:32.344Z,100035.02
2022-10-02T08:14:15.635Z,100034.33
2022-10-02T08:16:52.173Z,100029.14
2022-10-02T08:19:29.960Z,100022.76
2022-10-02T08:22:33.848Z,100030.98
2022-10-02T08:25:29.590Z,100026.70
2022-10-02T08:28:42.550Z,100027.37
2022-10-02T08:31:14.454Z,100026.81
2022-10-02T08:33:43.341Z,100026.93
2022-10-02T08:36:41.315Z,100026.80
2022-10-02T08:39:45.699Z,100018.26
2022-10-02T08:43:13.424Z,100013.20
2022-10-02T08:45:48.608Z,100014.88
2022-10-02T08:48:23.484Z,100012.16
2022-10-02T08:51:07.032Z,100020.21
2022-10-02T08:54:12.669Z,100008.88
2022-10-02T08:57:30.844Z,100014.27
2022-10-02T09:00:17.373Z,100003.05
2022-10-02T09:03:10.653Z,100008.39
2022-10-02T09:06:03.214Z,100008.04
2022-10-02T09:09:12.038Z,99999.95
2022-10-02T09:12:21.787Z,100006.05
2022-10-02T09:14:59.540Z,99996.30
2022-10-02T09:17:47.565Z,99993.42
2022-10-02T09:21:02.893Z,99993.35
2022-10-02T09:24:30.109Z,99999.10
2022-10-02T09:27:46.705Z,99991.96
2022-10-02T09:30:17.991Z,100000.27
2022-10-02T09:32:55.386Z,99994.60
2022-10-02T09:36:06.537Z,99990.22
2022-10-02T09:38:58.881Z,99986.39
2022-10-02T09:41:52.039Z,99980.88
2022-10-02T09:44:23.755Z,99986.23
2022-10-02T09:47:47.055Z,99975.70
2022-10-02T09:50:50.725Z,99974.56
2022-10-02T09:53:29.741Z,99971.89
2022-10-02T09:56:31.966Z,99976.30
2022-10-02T09:59:34.883Z,99977.31
2022-10-02T10:02:25.470Z,99978.64
2022-10-02T10:05:18.288Z,99972.46
2022-10-02T10:08:17.355Z,99980.03
2022-10-02T10:10:55.265Z,99980.29
2022-10-02T10:14:07.430Z,99978.39
2022-10-02T10:17:10.635Z,99983.02
2022-10-02T10:20:00.312Z,99976.62
2022-10-02T10:22:57.776Z,99978.29
2022-10-02T10:26:04.686Z,99975.89
2022-10-02T10:28:55.379Z,99973.91
2022-10-02T10:31:55.784Z,99969.02
2022-10-02T10:34:33.162Z,99962.00
2022-10-02T10:37:24.911Z,99964.04
2022-10-02T10:40:24.426Z,99957.40
2022-10-02T10:43:16.871Z,99948.29
2022-10-02T10:45:51.383Z,99940.19
2022-10-02T10:48:44.762Z,99936.42
2022-10-02T10:51:18.510Z,99939.22
2022-10-02T10:54:23.809Z,99929.08
2022-10-02T10:57:36.200Z,99927.64
2022-10-02T11:00:16.678Z,99920.95
2022-10-02T11:03:13.985Z,99920.75
2022-10-02T11:06:14.256Z,99912.16
2022-10-02T11:09:26.956Z,99913.88
2022-10-02T11:12:39.195Z,99914.31
2022-10-02T11:15:40.011Z,99910.33
2022-10-02T11:18:19.059Z,99912.36
2022-10-02T11:21:23.068Z,99911.70
2022-10-02T11:24:05.145Z,99923.67
2022-10-02T11:26:48.931Z,99917.64
2022-10-02T11:29:48.419Z,99908.08
2022-10-02T11:33:03.264Z,99911.52
2022-10-02T11:35:59.017Z,99906.30
2022-10-02T11:39:04.658Z,99898.40
2022-10-02T11:41:56.314Z,99897.41
2022-10-02T11:44:52.506Z,99896.40
2022-10-02T11:48:12.480Z,99896.90
2022-10-02T11:51:24.357Z,99891.98
2022-10-02T11:54:45.161Z,99890.98
2022-10-02T11:58:14.694Z,99898.27
2022-10-02T12:01:22.324Z,99895.05
2022-10-02T12:04:26.378Z,99892.61
2022-10-02T12:07:22.876Z,99887.19
2022-10-02T12:10:28.640Z,99888.49
2022-10-02T12:13:15.992Z,99892.30
2022-10-02T12:16:32.609Z,99898.20
2022-10-02T12:19:32.262Z,99899.45
2022-10-02T12:22:31.386Z,99891.92
2022-10-02T12:25:41.789Z,99898.70
2022-10-02T12:28:28.654Z,99898.60
2022-10-02T12:31:12.129Z,99899.25
2022-10-02T12:34:27.093Z,99920.27
2022-10-02T12:37:06.227Z,99924.16
2022-10-02T12:39:55.203Z,99915.24
2022-10-02T12:42:42.220Z,99930.60
2022-10-02T12:46:01.100Z,99931.52
2022-10-02T12:49:01.544Z,99944.27
2022-10-02T12:52:07.183Z,99948.79
2022-10-02T12:54:47.725Z,99950.98
2022-10-02T12:57:52.453Z,99962.45
2022-10-02T13:00:43.763Z,99945.26
2022-10-02T13:04:08.709Z,99936.29
2022-10-02T13:07:26.336Z,99919.38
2022-10-02T13:10:20.449Z,99901.20
2022-10-02T13:13:18.604Z,99895.77
2022-10-02T13:16:07.736Z,99897.41
2022-10-02T13:19:02.462Z,99903.87
2022-10-02T13:22:10.238Z,99895.84
2022-10-02T13:25:19.113Z,99890.55
2022-10-02T13:28:31.013Z,99885.48
2022-10-02T13:31:50.818Z,99881.33
2022-10-02T13:34:41.494Z,99877.04
2022-10-02T13:37:15.669Z,99870.73
2022-10-02T13:40:18.056Z,99862.42
2022-10-02T13:43:36.952Z,99853.38
2022-10-02T13:46:33.047Z,99852.77
2022-10-02T13:49:13.280Z,99845.45
2022-10-02T13:51:54.268Z,99842.06
2022-10-02T13:54:50.134Z,99838.34
2022-10-02T13:57:41.274Z,99830.65
2022-10-02T14:00:22.349Z,99826.86
2022-10-02T14:03:26.139Z,99825.06
2022-10-02T14:06:14.859Z,99821.95
2022-10-02T14:09:03.150Z,99812.69
2022-10-02T14:12:23.617Z,99815.21
2022-10-02T14:15:14.495Z,99812.65
2022-10-02T14:18:35.798Z,99810.80
2022-10-02T14:21:35.541Z,99806.39
2022-10-02T14:24:48.630Z,99800.41
2022-10-02T14:28:13.369Z,99790.02
2022-10-02T14:31:11.766Z,99795.48
2022-10-02T14:33:58.963Z,99794.41
2022-10-02T14:36:58.266Z,99795.48
2022-10-02T14:39:37.916Z,99798.60
2022-10-02T14:42:44.382Z,99804.41
2022-10-02T14:45:42.246Z,99809.23
2022-10-02T14:48:56.626Z,99814.36
2022-10-02T14:51:58.699Z,99816.92
2022-10-02T14:55:23.293Z,99819.96
2022-10-02T14:58:33.424Z,99818.79
2022-10-02T15:01:21.462Z,99820.13
2022-10-02T15:03:56.186Z,99811.94
2022-10-02T15:07:06.816Z,99817.62
2022-10-02T15:10:00.104Z,99811.79
2022-10-02T15:13:01.636Z,99817.41
2022-10-02T15:16:10.557Z,99815.50
2022-10-02T15:19:37.894Z,99816.30
2022-10-02T15:22:24.688Z,99814.95
2022-10-02T15:24:59.536Z,99816.20
2022-10-02T15:27:45.791Z,99826.75
2022-10-02T15:30:21.340Z,99840.10
2022-10-02T15:33:11.077Z,99853.82
2022-10-02T15:36:08.241Z,99837.48
2022-10-02T15:39:09.961Z,99838.21
2022-10-02T15:42:15.124Z,99845.72
2022-10-02T15:45:21.600Z,99839.51
2022-10-02T15:48:28.124Z,99834.27
2022-10-02T15:51:22.647Z,99832.86
2022-10-02T15:54:40.403Z,99834.13
2022-10-02T15:57:29.283Z,99837.42
2022-10-02T16:00:14.884Z,99838.64
2022-10-02T16:03:08.190Z,99844.59
2022-10-02T16:06:19.706Z,99850.23
2022-10-02T16:09:33.680Z,99846.45
2022-10-02T16:12:33.858Z,99847.58
2022-10-02T16:15:25.406Z,99845.16
2022-10-02T16:18:15.726Z,99852.80
2022-10-02T16:21:09.084Z,99851.63
2022-10-02T16:24:10.763Z,99856.90
2022-10-02T16:27:35.352Z,99861.28
2022-10-02T16:30:25.147Z,99866.29
2022-10-02T16:33:05.515Z,99872.73
2022-10-02T16:35:54.351Z,99871.27
2022-10-02T16:38:48.450Z,99870.61
2022-10-02T16:42:11.571Z,99874.32
2022-10-02T16:44:55.848Z,99866.34
2022-10-02T16:47:30.217Z,99871.63
2022-10-02T16:50:19.750Z,99872.55
2022-10-02T16:53:05.566Z,99870.42
2022-10-02T16:55:45.315Z,99876.90
2022-10-02T16:59:01.455Z,99887.48
2022-10-02T17:02:19.131Z,99888.50
2022-10-02T17:04:59.733Z,99891.35
2022-10-02T17:07:35.876Z,99890.92
2022-10-02T17:10:37.463Z,99896.02
2022-10-02T17:13:42.843Z,99897.78
2022-10-02T17:16:36.020Z,99897.45
2022-10-02T17:19:30.757Z,99906.61
2022-10-02T17:22:13.765Z,99905.73
2022-10-02T17:24:54.885Z,99911.59
2022-10-02T17:27:25.793Z,99915.77
2022-10-02T17:30:12.436Z,99919.52
2022-10-02T17:32:46.550Z,99919.86
2022-10-02T17:35:24.623Z,99919.54
2022-10-02T17:38:11.867Z,99921.30
2022-10-02T17:41:00.379Z,99921.64
2022-10-02T17:43:35.312Z,99925.63
2022-10-02T17:46:28.376Z,99927.96
2022-10-02T17:49:09.289Z,99927.95
2022-10-02T17:52:26.113Z,99933.84
2022-10-02T17:55:28.261Z,99934.78
2022-10-02T17:58:13.174Z,99936.88
2022-10-02T18:01:00.770Z,99941.66
2022-10-02T18:04:03.805Z,99934.32
2022-10-02T18:06:44.714Z,99940.41
2022-10-02T18:09:34.473Z,99943.54
2022-10-02T18:12:18.697Z,99944.14
2022-10-02T18:15:21.310Z,99949.24
2022-10-02T18:18:29.880Z,99955.65
2022-10-02T18:21:25.789Z,99954.09
2022-10-02T18:24:31.890Z,99958.27
2022-10-02T18:27:03.703Z,99955.16
2022-10-02T18:30:12.671Z,99956.05
2022-10-02T18:33:25.392Z,99951.98
2022-10-02T18:36:41.747Z,99950.94
2022-10-02T18:39:37.305Z,99954.27
2022-10-02T18:42:40.892Z,99952.42
2022-10-02T18:45:49.157Z,99953.14
2022-10-02T18:49:01.225Z,99953.58
2022-10-02T18:51:49.298Z,99959.95
2022-10-02T18:54:55.928Z,99964.27
2022-10-02T18:57:57.996Z,99961.09
2022-10-02T19:00:56.070Z,99959.80
2022-10-02T19:03:31.374Z,99967.77
2022-10-02T19:06:19.348Z,99964.29
2022-10-02T19:09:09.551Z,99969.45
2022-10-02T19:11:48.195Z,99975.13
2022-10-02T19:14:30.140Z,99975.27
2022-10-02T19:17:05.975Z,99974.33
2022-10-02T19:19:36.769Z,99973.11
2022-10-02T19:22:25.937Z,99974.70
2022-10-02T19:25:28.655Z,99977.86
2022-10-02T19:27:57.351Z,99985.14
2022-10-02T19:30:30.514Z,99986.25
2022-10-02T19:33:07.612Z,99985.77
2022-10-02T19:35:44.515Z,99988.25
2022-10-02T19:38:39.202Z,99990.52
2022-10-02T19:41:15.165Z,99998.60
2022-10-02T19:43:57.240Z,100012.87
2022-10-02T19:46:48.552Z,100020.75
2022-10-02T19:49:39.534Z,100020.48
2022-10-02T19:52:35.972Z,100022.48
2022-10-02T19:55:21.640Z,100020.15
2022-10-02T19:57:57.149Z,100022.71
2022-10-02T20:00:25.659Z,100021.98
2022-10-02T20:02:59.650Z,100020.00
2022-10-02T20:05:35.701Z,100020.77
2022-10-02T20:08:16.743Z,100024.67
2022-10-02T20:11:03.610Z,100024.86
2022-10-02T20:13:55.231Z,100021.84
2022-10-02T20:16:44.627Z,100021.68
2022-10-02T20:19:28.022Z,100028.07
2022-10-02T20:22:01.298Z,100028.67
2022-10-02T20:25:03.664Z,100030.30
2022-10-02T20:27:46.126Z,100034.61
2022-10-02T20:30:26.644Z,100039.77
2022-10-02T20:33:06.898Z,100038.89
2022-10-02T20:35:45.128Z,100040.85
2022-10-02T20:38:40.291Z,100043.14
2022-10-02T20:41:29.203Z,100041.90
2022-10-02T20:44:04.418Z,100044.77
2022-10-02T20:47:13.083Z,100047.48
2022-10-02T20:50:12.034Z,100051.67
2022-10-02T20:53:02.254Z,100050.27
2022-10-02T20:56:10.547Z,100051.08
2022-10-02T20:59:19.528Z,100054.13
2022-10-02T21:02:17.049Z,100058.41
2022-10-02T21:05:15.267Z,100064.65
2022-10-02T21:08:19.094Z,100061.64
2022-10-02T21:11:19.511Z,100063.05
2022-10-02T21:14:15.141Z,100066.89
2022-10-02T21:17:31.905Z,100066.90
2022-10-02T21:20:52.092Z,100068.51
2022-10-02T21:24:01.459Z,100066.73
2022-10-02T21:27:06.403Z,100075.08
2022-10-02T21:30:11.717Z,100076.55
2022-10-02T21:32:44.619Z,100077.39
2022-10-02T21:35:16.689Z,100078.75
2022-10-02T21:38:17.309Z,100078.31
2022-10-02T21:40:48.466Z,100076.65
2022-10-02T21:44:03.641Z,100077.82
2022-10-02T21:47:22.511Z,100077.17
2022-10-02T21:50:48.273Z,100082.02
2022-10-02T21:53:54.030Z,100079.46
2022-10-02T21:56:53.274Z,100082.29
2022-10-02T22:00:08.085Z,100083.47
2022-10-02T22:03:45.685Z,100079.80
2022-10-02T22:06:36.441Z,100087.02
2022-10-02T22:09:42.424Z,100081.61
2022-10-02T22:12:32.685Z,100082.25
2022-10-02T22:15:17.304Z,100085.30
2022-10-02T22:17:57.230Z,100085.56
2022-10-02T22:21:07.687Z,100088.30
2022-10-02T22:24:02.494Z,100091.98
2022-10-02T22:26:45.645Z,100093.91
2022-10-02T22:29:35.401Z,100097.46
2022-10-02T22:33:05.506Z,100098.95
2022-10-02T22:36:26.526Z,100099.49
2022-10-02T22:39:28.614Z,100097.34
2022-10-02T22:42:12.401Z,100101.29
2022-10-02T22:44:52.950Z,100105.64
2022-10-02T22:47:55.601Z,100105.40
2022-10-02T22:50:58.874Z,100103.86
2022-10-02T22:53:58.865Z,100103.92
